Česky Dansk Deutsch English Español Suomi Français Magyar Italiano Nederlands norsk Polski Português svenska Türkçe

 

Het Weer

Pointe-Noire (Congo)

14:00, 21 augustus 2016 (GMT)

 
WE
 
Home            
Pointe-Noire Cabinda Loubomo Moanda Makabana Matadi Inga Sibiti Mayumba Tchibanga Mouyondzi Mouila Brazzaville / Maya-Maya Franceville / Mvengue Kinshasa / N'Djili Moanda Djambala Lastoursville Luanda Lambarene M'Pouya Gamboma Kenge

Om een weerknop op uw website of weblog te plaatsen, copieer onderstaande code en plak die in uw pagina. In het eerste vakje staat HTML-code, in het tweede vakje UBB-code.


Add to Google

Details

Wind speed:2 bf, 5 kn, 2.6 m/s, 5.8 miles/h, 9.3 km/h
Wind direction:WSW, 240°
Visibility:Greater than 10000 m, 10 km, 32800 ft, 6.2 miles
Clouds:Aufgelockert bewölkt at 1500 ft, 457 m
Durchbrochene Bewölkung at 2600 ft, 792 m
Temperature:26°C, 79°F
Gefühlte Temperatur:28°C, 82°F
Dew-point:21°C, 70°F
Atmospheric pressure:1013 hPa, 759.8 mmHg, 29.91 inHg, 1.000 atm
Relative humidity:74.0 %
METAR:FCPP 211400Z 24005KT 9999 SCT015 BKN026 26/21 Q1013 NOSIG

Snelkoppelingen

Actuele weersinformatie van de hele wereld. Voeg locaties toe met het plus (+) symbool. Deze snelkoppelingen kunnen worden toegevoegd aan Google.

Lid van de Technetium groep

website free tracking
StatCounter NetStat W3C Validator

19-08-2022 09:33:46
astro.technetium.be money.technetium.be phote.technetium.be tafeltennistafel.technetium.be www.ligfiets.net